createdAt,value
2018-06-09T00:00:02.272Z,10.75
2018-06-09T00:00:36.074Z,9.38
2018-06-09T00:01:09.124Z,9.77
2018-06-09T00:01:42.172Z,9.35
2018-06-09T00:02:15.240Z,8.98
2018-06-09T00:02:48.271Z,9.32
2018-06-09T00:03:22.085Z,9.90
2018-06-09T00:03:55.120Z,9.45
2018-06-09T00:04:28.923Z,10.10
2018-06-09T00:05:02.740Z,9.65
2018-06-09T00:05:35.772Z,9.65
2018-06-09T00:06:08.823Z,9.13
2018-06-09T00:06:41.868Z,9.65
2018-06-09T00:07:14.940Z,9.85
2018-06-09T00:07:47.984Z,8.63
2018-06-09T00:08:21.784Z,9.80
2018-06-09T00:08:55.581Z,9.25
2018-06-09T00:09:28.616Z,9.68
2018-06-09T00:10:01.681Z,9.45
2018-06-09T00:10:34.737Z,9.23
2018-06-09T00:11:07.759Z,9.10
2018-06-09T00:11:41.560Z,9.68
2018-06-09T00:12:15.356Z,8.38
2018-06-09T00:12:49.482Z,9.38
2018-06-09T00:13:22.528Z,9.70
2018-06-09T00:13:55.569Z,10.20
2018-06-09T00:14:28.621Z,10.02
2018-06-09T00:15:01.658Z,8.93
2018-06-09T00:15:34.692Z,8.55
2018-06-09T00:16:07.751Z,8.75
2018-06-09T00:16:40.795Z,10.20
2018-06-09T00:17:14.092Z,9.95
2018-06-09T00:17:47.143Z,8.77
2018-06-09T00:18:20.255Z,9.02
2018-06-09T00:18:53.291Z,9.88
2018-06-09T00:19:26.312Z,9.63
2018-06-09T00:19:59.352Z,8.93
2018-06-09T00:20:32.378Z,8.93
2018-06-09T00:21:05.422Z,9.85
2018-06-09T00:21:38.451Z,10.00
2018-06-09T00:22:12.255Z,9.75
2018-06-09T00:22:46.071Z,9.80
2018-06-09T00:23:19.106Z,9.57
2018-06-09T00:23:52.131Z,9.55
2018-06-09T00:24:25.180Z,10.10
2018-06-09T00:24:58.988Z,9.98
2018-06-09T00:25:32.037Z,9.85
2018-06-09T00:26:05.076Z,9.10
2018-06-09T00:26:38.103Z,9.77
2018-06-09T00:27:11.140Z,9.50
2018-06-09T00:27:44.194Z,9.05
2018-06-09T00:28:17.237Z,10.00
2018-06-09T00:28:50.299Z,10.05
2018-06-09T00:29:23.328Z,9.57
2018-06-09T00:29:56.366Z,8.95
2018-06-09T00:30:29.408Z,9.55
2018-06-09T00:31:02.473Z,9.80
2018-06-09T00:31:35.507Z,10.02
2018-06-09T00:32:08.548Z,9.82
2018-06-09T00:32:41.589Z,9.52
2018-06-09T00:33:14.645Z,9.40
2018-06-09T00:33:47.799Z,9.70
2018-06-09T00:34:20.834Z,9.95
2018-06-09T00:34:53.959Z,9.88
2018-06-09T00:35:26.991Z,9.38
2018-06-09T00:36:00.020Z,9.88
2018-06-09T00:36:33.052Z,9.70
2018-06-09T00:37:06.084Z,10.00
2018-06-09T00:37:39.118Z,9.07
2018-06-09T00:38:12.176Z,10.40
2018-06-09T00:38:45.216Z,9.95
2018-06-09T00:39:18.249Z,11.50
2018-06-09T00:39:51.289Z,10.00
2018-06-09T00:40:24.328Z,9.88
2018-06-09T00:40:57.364Z,9.95
2018-06-09T00:41:30.432Z,10.30
2018-06-09T00:42:03.464Z,9.90
2018-06-09T00:42:36.499Z,8.45
2018-06-09T00:43:09.549Z,9.77
2018-06-09T00:43:42.593Z,9.88
2018-06-09T00:44:15.624Z,10.10
2018-06-09T00:44:48.651Z,8.85
2018-06-09T00:45:22.450Z,10.32
2018-06-09T00:45:56.253Z,8.93
2018-06-09T00:46:29.299Z,10.35
2018-06-09T00:47:02.347Z,10.25
2018-06-09T00:47:35.383Z,9.95
2018-06-09T00:48:08.588Z,9.63
2018-06-09T00:48:41.612Z,9.88
2018-06-09T00:49:14.645Z,9.63
2018-06-09T00:49:48.444Z,9.55
2018-06-09T00:50:21.485Z,9.43
2018-06-09T00:50:54.523Z,9.45
2018-06-09T00:51:27.560Z,9.55
2018-06-09T00:52:01.372Z,8.90
2018-06-09T00:52:34.416Z,9.80
2018-06-09T00:53:07.463Z,9.93
2018-06-09T00:53:40.507Z,9.38
2018-06-09T00:54:13.548Z,9.27
2018-06-09T00:54:46.588Z,10.02
2018-06-09T00:55:19.685Z,9.10
2018-06-09T00:55:52.868Z,10.80
2018-06-09T00:56:37.820Z,9.60
2018-06-09T00:57:10.851Z,9.80
2018-06-09T00:57:44.655Z,9.43
2018-06-09T00:58:18.482Z,9.52
2018-06-09T00:58:52.270Z,9.32
2018-06-09T00:59:25.308Z,10.25
2018-06-09T00:59:58.336Z,10.05
2018-06-09T01:00:31.412Z,10.23
2018-06-09T01:01:04.452Z,10.27
2018-06-09T01:01:37.483Z,10.15
2018-06-09T01:02:10.545Z,9.38
2018-06-09T01:02:43.572Z,9.93
2018-06-09T01:03:16.620Z,10.40
2018-06-09T01:03:50.435Z,10.50
2018-06-09T01:04:23.485Z,9.82
2018-06-09T01:04:56.614Z,9.63
2018-06-09T01:05:29.699Z,10.38
2018-06-09T01:06:02.757Z,10.27
2018-06-09T01:06:35.793Z,10.23
2018-06-09T01:07:09.583Z,9.80
2018-06-09T01:07:43.399Z,10.45
2018-06-09T01:08:16.436Z,9.85
2018-06-09T01:08:49.484Z,9.35
2018-06-09T01:09:23.280Z,9.75
2018-06-09T01:09:56.321Z,9.43
2018-06-09T01:10:29.343Z,9.55
2018-06-09T01:11:02.377Z,10.10
2018-06-09T01:11:35.424Z,10.45
2018-06-09T01:12:08.560Z,10.60
2018-06-09T01:12:41.616Z,9.82
2018-06-09T01:13:14.664Z,10.95
2018-06-09T01:13:47.892Z,10.32
2018-06-09T01:14:20.912Z,9.85
2018-06-09T01:14:53.964Z,10.90
2018-06-09T01:15:27.771Z,11.05
2018-06-09T01:16:01.587Z,10.77
2018-06-09T01:16:34.615Z,10.25
2018-06-09T01:17:07.663Z,9.90
2018-06-09T01:17:40.698Z,10.35
2018-06-09T01:18:13.756Z,10.40
2018-06-09T01:18:47.583Z,10.13
2018-06-09T01:19:20.637Z,10.23
2018-06-09T01:19:54.468Z,10.15
2018-06-09T01:20:28.280Z,9.93
2018-06-09T01:21:01.333Z,10.10
2018-06-09T01:21:34.385Z,10.00
2018-06-09T01:22:07.424Z,10.73
2018-06-09T01:22:40.482Z,8.98
2018-06-09T01:23:13.525Z,9.85
2018-06-09T01:23:46.585Z,10.57
2018-06-09T01:24:19.619Z,10.00
2018-06-09T01:24:53.459Z,10.27
2018-06-09T01:25:26.491Z,9.73
2018-06-09T01:25:59.550Z,9.68
2018-06-09T01:26:32.621Z,9.98
2018-06-09T01:27:05.659Z,10.32
2018-06-09T01:27:38.701Z,9.88
2018-06-09T01:28:12.509Z,10.00
2018-06-09T01:28:45.570Z,9.88
2018-06-09T01:29:19.360Z,10.23
2018-06-09T01:29:52.482Z,9.98
2018-06-09T01:30:25.517Z,10.27
2018-06-09T01:30:58.562Z,10.40
2018-06-09T01:31:31.596Z,10.27
2018-06-09T01:32:04.667Z,10.52
2018-06-09T01:32:37.716Z,10.70
2018-06-09T01:33:11.523Z,10.95
2018-06-09T01:33:44.572Z,10.05
2018-06-09T01:34:18.399Z,10.63
2018-06-09T01:34:51.430Z,11.02
2018-06-09T01:35:24.469Z,11.63
2018-06-09T01:35:57.500Z,11.10
2018-06-09T01:36:31.302Z,11.10
2018-06-09T01:37:04.336Z,11.07
2018-06-09T01:37:37.375Z,10.43
2018-06-09T01:38:10.420Z,11.20
2018-06-09T01:38:43.450Z,11.18
2018-06-09T01:39:16.524Z,11.73
2018-06-09T01:39:49.544Z,12.23
2018-06-09T01:40:22.820Z,11.60
2018-06-09T01:40:56.663Z,12.05
2018-06-09T01:41:29.701Z,11.40
2018-06-09T01:42:04.316Z,11.90
2018-06-09T01:42:37.367Z,11.32
2018-06-09T01:43:11.178Z,11.80
2018-06-09T01:43:44.224Z,11.68
2018-06-09T01:44:17.268Z,11.18
2018-06-09T01:44:50.302Z,11.00
2018-06-09T01:45:23.343Z,11.40
2018-06-09T01:45:56.385Z,11.40
2018-06-09T01:46:29.411Z,10.32
2018-06-09T01:47:03.213Z,11.18
2018-06-09T01:47:36.252Z,11.15
2018-06-09T01:48:09.312Z,10.88
2018-06-09T01:48:42.344Z,10.80
2018-06-09T01:49:15.408Z,10.85
2018-06-09T01:49:48.443Z,10.82
2018-06-09T01:50:21.485Z,10.90
2018-06-09T01:50:54.527Z,10.88
2018-06-09T01:51:27.557Z,11.25
2018-06-09T01:52:00.600Z,10.93
2018-06-09T01:52:33.635Z,10.30
2018-06-09T01:53:06.769Z,11.77
2018-06-09T01:53:39.817Z,11.32
2018-06-09T01:54:12.863Z,11.50
2018-06-09T01:54:46.672Z,10.95
2018-06-09T01:55:20.479Z,11.40
2018-06-09T01:55:53.517Z,11.02
2018-06-09T01:56:26.556Z,11.70
2018-06-09T01:56:59.600Z,11.20
2018-06-09T01:57:32.628Z,11.10
2018-06-09T01:58:05.664Z,11.93
2018-06-09T01:58:38.711Z,10.73
2018-06-09T01:59:12.525Z,10.98
2018-06-09T01:59:45.569Z,11.10
2018-06-09T02:00:18.689Z,11.20
2018-06-09T02:00:51.720Z,10.77
2018-06-09T02:01:24.857Z,11.27
2018-06-09T02:01:57.904Z,11.02
2018-06-09T02:02:30.944Z,11.18
2018-06-09T02:03:04.740Z,10.05
2018-06-09T02:03:38.564Z,11.95
2018-06-09T02:04:11.604Z,11.57
2018-06-09T02:04:44.659Z,10.82
2018-06-09T02:05:17.701Z,10.80
2018-06-09T02:05:50.741Z,11.00
2018-06-09T02:06:23.787Z,10.77
2018-06-09T02:06:56.839Z,11.73
2018-06-09T02:07:29.856Z,11.05
2018-06-09T02:08:02.905Z,11.27
2018-06-09T02:08:35.960Z,11.27
2018-06-09T02:09:09.033Z,11.15
2018-06-09T02:09:42.074Z,11.20
2018-06-09T02:10:15.110Z,10.95
2018-06-09T02:10:48.159Z,11.63
2018-06-09T02:11:21.217Z,10.90
2018-06-09T02:11:54.275Z,11.32
2018-06-09T02:12:27.309Z,10.82
2018-06-09T02:13:00.352Z,11.15
2018-06-09T02:13:33.400Z,10.52
2018-06-09T02:14:06.449Z,11.45
2018-06-09T02:14:40.271Z,11.43
2018-06-09T02:15:13.308Z,10.70
2018-06-09T02:15:46.359Z,11.73
2018-06-09T02:16:19.383Z,11.00
2018-06-09T02:16:53.180Z,9.73
2018-06-09T02:17:26.220Z,11.23
2018-06-09T02:17:59.264Z,10.73
2018-06-09T02:18:32.295Z,10.77
2018-06-09T02:19:06.103Z,10.20
2018-06-09T02:19:39.147Z,11.05
2018-06-09T02:20:12.189Z,10.15
2018-06-09T02:20:45.981Z,10.75
2018-06-09T02:21:19.014Z,10.95
2018-06-09T02:21:52.051Z,10.95
2018-06-09T02:22:25.196Z,9.80
2018-06-09T02:22:58.231Z,10.95
2018-06-09T02:23:31.291Z,10.27
2018-06-09T02:24:05.092Z,10.93
2018-06-09T02:24:38.994Z,10.55
2018-06-09T02:25:12.816Z,10.43
2018-06-09T02:25:45.912Z,10.50
2018-06-09T02:26:18.943Z,11.02
2018-06-09T02:26:52.856Z,10.20
2018-06-09T02:27:25.879Z,10.30
2018-06-09T02:27:58.920Z,10.60
2018-06-09T02:28:31.963Z,10.35
2018-06-09T02:29:04.999Z,10.55
2018-06-09T02:29:38.043Z,10.50
2018-06-09T02:30:11.080Z,10.40
2018-06-09T02:30:44.955Z,10.35
2018-06-09T02:31:17.990Z,10.80
2018-06-09T02:31:51.059Z,10.10
2018-06-09T02:32:24.095Z,10.40
2018-06-09T02:32:57.131Z,10.73
2018-06-09T02:33:30.187Z,11.00
2018-06-09T02:34:03.224Z,11.23
2018-06-09T02:34:36.270Z,11.60
2018-06-09T02:35:09.320Z,10.45
2018-06-09T02:35:42.365Z,10.35
2018-06-09T02:36:15.406Z,9.98
2018-06-09T02:36:48.437Z,10.93
2018-06-09T02:37:21.486Z,10.43
2018-06-09T02:37:54.513Z,10.43
2018-06-09T02:38:27.559Z,10.27
2018-06-09T02:39:00.584Z,9.68
2018-06-09T02:39:33.644Z,11.25
2018-06-09T02:40:06.695Z,10.95
2018-06-09T02:40:39.852Z,11.10
2018-06-09T02:41:12.890Z,9.48
2018-06-09T02:41:46.011Z,10.85
2018-06-09T02:42:19.032Z,10.60
2018-06-09T02:42:52.082Z,11.30
2018-06-09T02:43:25.116Z,11.38
2018-06-09T02:43:58.154Z,10.98
2018-06-09T02:44:31.228Z,11.45
2018-06-09T02:45:04.265Z,11.38
2018-06-09T02:45:37.312Z,11.05
2018-06-09T02:46:10.348Z,10.70
2018-06-09T02:46:43.386Z,11.50
2018-06-09T02:47:16.421Z,10.88
2018-06-09T02:47:49.480Z,10.60
2018-06-09T02:48:22.507Z,10.65
2018-06-09T02:48:55.540Z,11.15
2018-06-09T02:49:28.616Z,10.38
2018-06-09T02:50:02.399Z,11.12
2018-06-09T02:50:36.208Z,11.27
2018-06-09T02:51:10.015Z,10.55
2018-06-09T02:51:43.045Z,10.68
2018-06-09T02:52:16.097Z,10.90
2018-06-09T02:52:49.904Z,10.77
2018-06-09T02:53:22.935Z,11.43
2018-06-09T02:53:55.969Z,11.00
2018-06-09T02:54:29.037Z,10.88
2018-06-09T02:55:02.840Z,11.35
2018-06-09T02:55:36.657Z,11.52
2018-06-09T02:56:09.699Z,10.52
2018-06-09T02:56:42.753Z,11.68
2018-06-09T02:57:15.799Z,11.07
2018-06-09T02:57:48.981Z,10.98
2018-06-09T02:58:22.022Z,11.35
2018-06-09T02:58:55.056Z,11.75
2018-06-09T02:59:28.117Z,12.00
2018-06-09T03:00:01.182Z,12.30
2018-06-09T03:00:34.216Z,11.07
2018-06-09T03:01:08.012Z,12.07
2018-06-09T03:01:41.819Z,11.60
2018-06-09T03:02:14.871Z,12.23
2018-06-09T03:02:47.905Z,11.73
2018-06-09T03:03:20.957Z,11.75
2018-06-09T03:03:54.000Z,11.95
2018-06-09T03:04:27.060Z,11.48
2018-06-09T03:05:00.337Z,12.73
2018-06-09T03:05:33.389Z,11.68
2018-06-09T03:06:06.436Z,12.02
2018-06-09T03:06:39.484Z,12.40
2018-06-09T03:07:12.526Z,11.68
2018-06-09T03:07:45.565Z,11.43
2018-06-09T03:08:18.609Z,12.57
2018-06-09T03:08:51.644Z,11.32
2018-06-09T03:09:24.691Z,12.52
2018-06-09T03:09:57.744Z,13.00
2018-06-09T03:10:30.780Z,13.25
2018-06-09T03:11:03.831Z,12.82
2018-06-09T03:11:36.868Z,12.15
2018-06-09T03:12:09.900Z,12.77
2018-06-09T03:12:42.932Z,12.25
2018-06-09T03:13:15.971Z,12.27
2018-06-09T03:13:49.089Z,12.77
2018-06-09T03:14:22.137Z,12.32
2018-06-09T03:14:55.182Z,13.15
2018-06-09T03:15:28.232Z,12.13
2018-06-09T03:16:01.270Z,11.57
2018-06-09T03:16:34.303Z,12.20
2018-06-09T03:17:07.351Z,12.02
2018-06-09T03:17:40.373Z,12.32
2018-06-09T03:18:13.419Z,12.52
2018-06-09T03:18:46.469Z,12.20
2018-06-09T03:19:19.502Z,11.98
2018-06-09T03:19:53.328Z,12.55
2018-06-09T03:20:26.383Z,12.73
2018-06-09T03:20:59.432Z,13.13
2018-06-09T03:21:32.469Z,11.88
2018-06-09T03:22:05.507Z,12.45
2018-06-09T03:22:38.548Z,12.73
2018-06-09T03:23:13.095Z,12.43
2018-06-09T03:23:46.127Z,12.48
2018-06-09T03:24:19.175Z,12.95
2018-06-09T03:24:52.214Z,12.75
2018-06-09T03:25:25.268Z,12.02
2018-06-09T03:25:58.305Z,12.43
2018-06-09T03:26:31.344Z,13.40
2018-06-09T03:27:04.383Z,12.13
2018-06-09T03:27:37.420Z,13.48
2018-06-09T03:28:10.454Z,12.80
2018-06-09T03:28:44.262Z,12.07
2018-06-09T03:29:17.293Z,13.25
2018-06-09T03:29:50.336Z,12.75
2018-06-09T03:30:23.384Z,12.68
2018-06-09T03:30:56.433Z,12.65
2018-06-09T03:31:29.459Z,12.07
2018-06-09T03:32:02.511Z,12.10
2018-06-09T03:32:35.570Z,12.02
2018-06-09T03:33:08.907Z,11.68
2018-06-09T03:33:41.946Z,12.55
2018-06-09T03:34:14.991Z,12.57
2018-06-09T03:34:48.806Z,12.27
2018-06-09T03:35:22.629Z,12.40
2018-06-09T03:35:55.669Z,11.73
2018-06-09T03:36:28.712Z,12.15
2018-06-09T03:37:01.744Z,12.98
2018-06-09T03:37:34.771Z,11.07
2018-06-09T03:38:08.584Z,12.20
2018-06-09T03:38:41.618Z,12.82
2018-06-09T03:39:14.664Z,12.55
2018-06-09T03:39:47.700Z,11.73
2018-06-09T03:40:21.553Z,11.60
2018-06-09T03:40:55.352Z,12.80
2018-06-09T03:41:28.401Z,12.80
2018-06-09T03:42:01.440Z,11.30
2018-06-09T03:42:34.482Z,12.30
2018-06-09T03:43:07.542Z,11.80
2018-06-09T03:43:40.564Z,12.60
2018-06-09T03:44:13.604Z,13.15
2018-06-09T03:44:46.650Z,12.25
2018-06-09T03:45:19.696Z,12.20
2018-06-09T03:45:52.764Z,12.82
2018-06-09T03:46:26.590Z,12.88
2018-06-09T03:46:59.620Z,13.43
2018-06-09T03:47:33.428Z,12.43
2018-06-09T03:48:06.536Z,13.35
2018-06-09T03:48:39.597Z,12.40
2018-06-09T03:49:12.640Z,12.40
2018-06-09T03:49:46.445Z,12.15
2018-06-09T03:50:19.482Z,12.60
2018-06-09T03:50:52.544Z,12.15
2018-06-09T03:51:25.608Z,12.20
2018-06-09T03:51:59.082Z,12.37
2018-06-09T03:52:32.370Z,12.07
2018-06-09T03:53:05.427Z,12.18
2018-06-09T03:53:38.723Z,11.88
2018-06-09T03:54:11.776Z,12.30
2018-06-09T03:54:44.830Z,12.02
2018-06-09T03:55:18.631Z,12.52
2018-06-09T03:55:51.692Z,12.73
2018-06-09T03:56:24.821Z,12.37
2018-06-09T03:56:57.870Z,12.55
2018-06-09T03:57:30.904Z,13.93
2018-06-09T03:58:03.988Z,13.25
2018-06-09T03:58:37.037Z,12.93
2018-06-09T03:59:10.080Z,13.50
2018-06-09T03:59:43.129Z,13.05
2018-06-09T04:00:16.173Z,14.30
2018-06-09T04:00:49.235Z,13.75
2018-06-09T04:01:22.288Z,13.48
2018-06-09T04:01:55.334Z,13.73
2018-06-09T04:02:28.379Z,14.68
2018-06-09T04:03:01.405Z,13.88
2018-06-09T04:03:34.445Z,13.20
2018-06-09T04:04:08.248Z,13.35
2018-06-09T04:04:42.049Z,12.95
2018-06-09T04:05:15.083Z,14.18
2018-06-09T04:05:48.139Z,14.10
2018-06-09T04:06:21.179Z,13.62
2018-06-09T04:06:54.220Z,14.05
2018-06-09T04:07:27.254Z,14.63
2018-06-09T04:08:00.293Z,14.27
2018-06-09T04:08:33.335Z,13.88
2018-06-09T04:09:06.492Z,14.35
2018-06-09T04:09:39.539Z,13.62
2018-06-09T04:10:12.586Z,13.88
2018-06-09T04:10:46.404Z,14.02
2018-06-09T04:11:19.449Z,15.15
2018-06-09T04:11:52.485Z,15.32
2018-06-09T04:12:25.524Z,15.55
2018-06-09T04:12:58.584Z,13.18
2018-06-09T04:13:31.628Z,13.35
2018-06-09T04:14:04.690Z,14.20
2018-06-09T04:14:37.719Z,13.48
2018-06-09T04:15:10.756Z,13.80
2018-06-09T04:15:43.802Z,16.80
2018-06-09T04:16:16.844Z,17.35
2018-06-09T04:16:49.887Z,18.25
2018-06-09T04:17:23.683Z,17.48
2018-06-09T04:17:57.484Z,17.65
2018-06-09T04:18:31.284Z,17.05
2018-06-09T04:19:04.354Z,16.77
2018-06-09T04:19:37.391Z,14.80
2018-06-09T04:20:10.439Z,15.40
2018-06-09T04:20:43.541Z,15.15
2018-06-09T04:21:16.590Z,17.50
2018-06-09T04:21:49.637Z,15.55
2018-06-09T04:22:22.682Z,14.87
2018-06-09T04:22:55.716Z,14.27
2018-06-09T04:23:28.816Z,15.90
2018-06-09T04:24:01.849Z,17.02
2018-06-09T04:24:34.896Z,15.00
2018-06-09T04:25:07.936Z,16.02
2018-06-09T04:25:40.984Z,16.23
2018-06-09T04:26:14.035Z,15.65
2018-06-09T04:26:47.063Z,15.35
2018-06-09T04:27:20.101Z,15.48
2018-06-09T04:27:53.147Z,16.90
2018-06-09T04:28:26.239Z,16.98
2018-06-09T04:28:59.225Z,16.15
2018-06-09T04:29:32.256Z,16.62
2018-06-09T04:30:05.296Z,18.65
2018-06-09T04:30:38.339Z,16.80
2018-06-09T04:31:11.391Z,16.95
2018-06-09T04:31:44.441Z,17.65
2018-06-09T04:32:17.504Z,16.48
2018-06-09T04:32:50.545Z,15.98
2018-06-09T04:33:23.577Z,14.82
2018-06-09T04:33:56.645Z,14.65
2018-06-09T04:34:29.920Z,17.23
2018-06-09T04:35:02.917Z,16.92
2018-06-09T04:35:37.061Z,17.00
2018-06-09T04:36:10.112Z,16.52
2018-06-09T04:36:43.152Z,15.38
2018-06-09T04:37:16.192Z,15.85
2018-06-09T04:37:49.244Z,16.05
2018-06-09T04:38:22.282Z,17.25
2018-06-09T04:38:55.311Z,16.67
2018-06-09T04:39:28.368Z,15.70
2018-06-09T04:40:01.449Z,17.00
2018-06-09T04:40:35.227Z,15.38
2018-06-09T04:41:08.267Z,16.95
2018-06-09T04:41:41.318Z,15.52
2018-06-09T04:42:14.365Z,16.90
2018-06-09T04:42:47.424Z,15.88
2018-06-09T04:43:21.240Z,15.25
2018-06-09T04:43:54.275Z,16.67
2018-06-09T04:44:27.308Z,15.23
2018-06-09T04:45:00.352Z,15.70
2018-06-09T04:45:33.381Z,16.25
2018-06-09T04:46:06.475Z,16.90
2018-06-09T04:46:39.472Z,14.85
2018-06-09T04:47:12.517Z,15.02
2018-06-09T04:47:45.554Z,16.15
2018-06-09T04:48:18.588Z,16.42
2018-06-09T04:48:51.627Z,17.83
2018-06-09T04:49:24.672Z,17.30
2018-06-09T04:49:57.715Z,16.77
2018-06-09T04:50:30.762Z,16.00
2018-06-09T04:51:03.801Z,16.12
2018-06-09T04:51:36.869Z,16.50
2018-06-09T04:52:10.089Z,17.30
2018-06-09T04:52:43.076Z,17.37
2018-06-09T04:53:16.104Z,16.60
2018-06-09T04:53:49.144Z,17.83
2018-06-09T04:54:22.176Z,17.12
2018-06-09T04:54:55.207Z,18.12
2018-06-09T04:55:28.247Z,16.37
2018-06-09T04:56:02.057Z,16.65
2018-06-09T04:56:35.102Z,17.17
2018-06-09T04:57:08.139Z,16.87
2018-06-09T04:57:41.193Z,18.10
2018-06-09T04:58:14.232Z,16.77
2018-06-09T04:58:47.267Z,18.52
2018-06-09T04:59:20.364Z,16.67
2018-06-09T04:59:53.339Z,16.23
2018-06-09T05:00:26.377Z,16.92
2018-06-09T05:00:59.413Z,17.75
2018-06-09T05:01:33.213Z,17.02
2018-06-09T05:02:07.043Z,16.62
2018-06-09T05:02:40.072Z,16.35
2018-06-09T05:03:13.104Z,16.50
2018-06-09T05:03:46.904Z,15.48
2018-06-09T05:04:20.708Z,14.98
2018-06-09T05:04:53.757Z,16.10
2018-06-09T05:05:26.779Z,15.73
2018-06-09T05:05:59.820Z,16.30
2018-06-09T05:06:33.627Z,14.68
2018-06-09T05:07:06.676Z,15.43
2018-06-09T05:07:39.716Z,15.70
2018-06-09T05:08:12.759Z,16.27
2018-06-09T05:08:45.810Z,14.27
2018-06-09T05:09:18.851Z,17.25
2018-06-09T05:09:51.876Z,17.80
2018-06-09T05:10:24.920Z,15.10
2018-06-09T05:10:57.966Z,16.50
2018-06-09T05:11:31.012Z,17.00
2018-06-09T05:12:04.846Z,16.75
2018-06-09T05:12:37.895Z,16.92
2018-06-09T05:13:10.941Z,16.00
2018-06-09T05:13:43.977Z,16.92
2018-06-09T05:14:17.007Z,17.35
2018-06-09T05:14:50.804Z,17.27
2018-06-09T05:15:24.628Z,18.90
2018-06-09T05:15:57.672Z,18.45
2018-06-09T05:16:31.474Z,17.73
2018-06-09T05:17:05.287Z,16.92
2018-06-09T05:17:38.322Z,16.85
2018-06-09T05:18:11.360Z,16.27
2018-06-09T05:18:44.437Z,16.02
2018-06-09T05:19:17.500Z,16.45
2018-06-09T05:19:50.588Z,15.75
2018-06-09T05:20:23.628Z,17.23
2018-06-09T05:20:56.663Z,16.50
2018-06-09T05:21:29.716Z,17.50
2018-06-09T05:22:02.768Z,16.00
2018-06-09T05:22:35.809Z,16.20
2018-06-09T05:23:09.624Z,15.98
2018-06-09T05:23:42.668Z,16.70
2018-06-09T05:24:15.711Z,15.73
2018-06-09T05:24:48.756Z,17.98
2018-06-09T05:25:21.818Z,18.02
2018-06-09T05:25:54.855Z,16.80
2018-06-09T05:26:27.896Z,17.60
2018-06-09T05:27:00.957Z,16.65
2018-06-09T05:27:33.993Z,17.33
2018-06-09T05:28:07.843Z,16.85
2018-06-09T05:28:41.596Z,16.58
2018-06-09T05:29:14.649Z,17.87
2018-06-09T05:29:48.460Z,17.27
2018-06-09T05:30:21.581Z,17.83
2018-06-09T05:30:54.624Z,17.33
2018-06-09T05:31:27.656Z,15.10
2018-06-09T05:32:00.705Z,17.45
2018-06-09T05:32:33.789Z,18.48
2018-06-09T05:33:06.835Z,17.85
2018-06-09T05:33:39.880Z,17.87
2018-06-09T05:34:12.924Z,18.08
2018-06-09T05:34:45.985Z,17.40
2018-06-09T05:35:19.013Z,17.33
2018-06-09T05:35:52.052Z,16.37
2018-06-09T05:36:25.092Z,17.67
2018-06-09T05:36:58.145Z,16.92
2018-06-09T05:37:31.183Z,18.52
2018-06-09T05:38:04.988Z,17.58
2018-06-09T05:38:38.788Z,16.62
2018-06-09T05:39:12.600Z,18.17
2018-06-09T05:39:45.847Z,16.95
2018-06-09T05:40:19.653Z,16.33
2018-06-09T05:40:53.460Z,17.35
2018-06-09T05:41:26.489Z,18.12
2018-06-09T05:41:59.533Z,18.23
2018-06-09T05:42:32.581Z,18.73
2018-06-09T05:43:05.620Z,17.52
2018-06-09T05:43:38.660Z,17.87
2018-06-09T05:44:11.703Z,17.27
2018-06-09T05:44:44.744Z,17.90
2018-06-09T05:45:17.785Z,18.55
2018-06-09T05:45:50.816Z,17.50
2018-06-09T05:46:23.868Z,18.25
2018-06-09T05:46:56.911Z,18.98
2018-06-09T05:47:30.112Z,18.23
2018-06-09T05:48:03.154Z,17.30
2018-06-09T05:48:36.184Z,18.30
2018-06-09T05:49:10.008Z,16.48
2018-06-09T05:49:43.041Z,17.42
2018-06-09T05:50:16.079Z,17.75
2018-06-09T05:50:49.113Z,17.62
2018-06-09T05:51:22.912Z,16.48
2018-06-09T05:51:56.536Z,16.98
2018-06-09T05:52:29.601Z,18.73
2018-06-09T05:53:02.645Z,19.30
2018-06-09T05:53:36.433Z,17.87
2018-06-09T05:54:10.231Z,19.20
2018-06-09T05:54:43.274Z,18.87
2018-06-09T05:55:16.312Z,16.62
2018-06-09T05:55:49.368Z,18.17
2018-06-09T05:56:22.396Z,17.05
2018-06-09T05:56:55.448Z,17.40
2018-06-09T05:57:28.488Z,16.58
2018-06-09T05:58:01.696Z,15.45
2018-06-09T05:58:34.747Z,17.30
2018-06-09T05:59:07.778Z,17.42
2018-06-09T05:59:40.822Z,15.95
2018-06-09T06:00:13.885Z,17.35
2018-06-09T06:00:46.932Z,16.42
2018-06-09T06:01:19.975Z,16.95
2018-06-09T06:01:53.013Z,16.05
2018-06-09T06:02:26.071Z,15.68
2018-06-09T06:02:59.133Z,15.65
2018-06-09T06:03:32.268Z,15.85
2018-06-09T06:04:05.316Z,15.93
2018-06-09T06:04:38.344Z,16.35
2018-06-09T06:05:12.183Z,16.00
2018-06-09T06:05:45.211Z,16.37
2018-06-09T06:06:18.259Z,16.08
2018-06-09T06:06:51.307Z,14.95
2018-06-09T06:07:24.344Z,15.13
2018-06-09T06:07:57.391Z,15.00
2018-06-09T06:08:30.447Z,16.05
2018-06-09T06:09:03.485Z,15.82
2018-06-09T06:09:36.533Z,16.37
2018-06-09T06:10:09.577Z,16.10
2018-06-09T06:10:42.612Z,16.33
2018-06-09T06:11:15.672Z,15.57
2018-06-09T06:11:49.467Z,18.42
2018-06-09T06:12:23.280Z,18.25
2018-06-09T06:12:56.336Z,17.55
2018-06-09T06:13:29.376Z,17.90
2018-06-09T06:14:02.431Z,18.02
2018-06-09T06:14:35.464Z,16.90
2018-06-09T06:15:08.560Z,16.58
2018-06-09T06:15:41.667Z,17.17
2018-06-09T06:16:14.688Z,17.85
2018-06-09T06:16:47.734Z,17.42
2018-06-09T06:17:20.771Z,17.10
2018-06-09T06:17:53.807Z,16.75
2018-06-09T06:18:26.856Z,16.48
2018-06-09T06:18:59.884Z,18.37
2018-06-09T06:19:32.932Z,16.62
2018-06-09T06:20:06.745Z,16.77
2018-06-09T06:20:40.550Z,16.15
2018-06-09T06:21:13.596Z,16.37
2018-06-09T06:21:46.632Z,18.33
2018-06-09T06:22:19.672Z,17.58
2018-06-09T06:22:52.738Z,16.37
2018-06-09T06:23:25.813Z,16.80
2018-06-09T06:23:58.845Z,16.77
2018-06-09T06:24:31.883Z,17.62
2018-06-09T06:25:04.931Z,16.48
2018-06-09T06:25:37.959Z,18.80
2018-06-09T06:26:11.129Z,17.80
2018-06-09T06:26:44.485Z,16.98
2018-06-09T06:27:17.653Z,17.35
2018-06-09T06:27:50.861Z,18.00
2018-06-09T06:28:23.925Z,18.40
2018-06-09T06:28:56.968Z,17.80
2018-06-09T06:29:30.008Z,14.63
2018-06-09T06:30:03.064Z,15.85
2018-06-09T06:30:36.105Z,17.73
2018-06-09T06:31:09.162Z,17.02
2018-06-09T06:31:42.471Z,16.45
2018-06-09T06:32:15.955Z,15.48
2018-06-09T06:32:49.029Z,15.70
2018-06-09T06:33:22.853Z,16.10
2018-06-09T06:33:55.904Z,16.58
2018-06-09T06:34:28.944Z,16.65
2018-06-09T06:35:01.986Z,17.00
2018-06-09T06:35:35.029Z,16.70
2018-06-09T06:36:08.823Z,15.00
2018-06-09T06:36:41.869Z,16.52
2018-06-09T06:37:15.066Z,16.40
2018-06-09T06:37:48.104Z,15.35
2018-06-09T06:38:21.155Z,16.08
2018-06-09T06:38:54.189Z,16.25
2018-06-09T06:39:27.224Z,16.67
2018-06-09T06:40:00.269Z,17.00
2018-06-09T06:40:33.312Z,16.65
2018-06-09T06:41:06.363Z,16.62
2018-06-09T06:41:39.416Z,17.50
2018-06-09T06:42:12.435Z,15.57
2018-06-09T06:42:45.472Z,15.60
2018-06-09T06:43:18.552Z,15.50
2018-06-09T06:43:52.355Z,15.45
2018-06-09T06:44:26.172Z,14.80
2018-06-09T06:44:59.234Z,15.45
2018-06-09T06:45:33.040Z,14.87
2018-06-09T06:46:06.067Z,14.00
2018-06-09T06:46:39.876Z,14.93
2018-06-09T06:47:12.979Z,15.60
2018-06-09T06:47:45.956Z,17.60
2018-06-09T06:48:19.017Z,16.25
2018-06-09T06:48:52.195Z,17.58
2018-06-09T06:49:25.244Z,17.05
2018-06-09T06:49:59.042Z,15.20
2018-06-09T06:50:32.088Z,16.35
2018-06-09T06:51:05.139Z,17.37
2018-06-09T06:51:38.402Z,17.65
2018-06-09T06:52:11.436Z,18.77
2018-06-09T06:52:45.245Z,17.15
2018-06-09T06:53:18.313Z,16.17
2018-06-09T06:53:51.344Z,18.27
2018-06-09T06:54:24.379Z,16.25
2018-06-09T06:54:57.424Z,15.55
2018-06-09T06:55:30.463Z,16.95
2018-06-09T06:56:03.525Z,17.67
2018-06-09T06:56:36.575Z,16.67
2018-06-09T06:57:09.604Z,17.60
2018-06-09T06:57:42.651Z,17.58
2018-06-09T06:58:15.689Z,16.25
2018-06-09T06:58:48.718Z,17.27
2018-06-09T06:59:21.779Z,16.05
2018-06-09T06:59:54.824Z,14.82
2018-06-09T07:00:27.861Z,15.43
2018-06-09T07:01:00.907Z,14.07
2018-06-09T07:01:33.966Z,14.38
2018-06-09T07:02:07.048Z,14.20
2018-06-09T07:02:40.048Z,13.50
2018-06-09T07:03:13.084Z,14.02
2018-06-09T07:03:46.140Z,15.25
2018-06-09T07:04:19.188Z,14.48
2018-06-09T07:04:52.239Z,15.27
2018-06-09T07:05:25.275Z,15.63
2018-06-09T07:05:58.332Z,15.98
2018-06-09T07:06:32.137Z,16.02
2018-06-09T07:07:05.192Z,14.63
2018-06-09T07:07:38.995Z,15.20
2018-06-09T07:08:12.243Z,16.67
2018-06-09T07:08:45.291Z,16.90
2018-06-09T07:09:18.323Z,15.45